Time;durP1;ratioP1;P1;durP2;ratioP2;P2;SDS_P1;SDS_P2;PMS_P1;PMS_P2;Temp;Humidity;BMP_temperature;BMP_pressure;BME280_temperature;BME280_humidity;BME280_pressure;Samples;Min_cycle;Max_cycle;Signal;HPM_P1;HPM_P2
2022/11/08 00:01:50;;;;;;;;;;;12.00;66.60;;;;;;5023048;28;87283;-36
2022/11/08 00:04:16;;;;;;;;;;;12.00;66.60;;;;;;5022597;28;87057;-36
2022/11/08 00:14:55;;;;;;;;;;;12.00;66.60;;;;;;5023260;28;86545;-36
2022/11/08 00:17:21;;;;;;;;;;;12.00;66.60;;;;;;5023292;28;87209;-36
2022/11/08 00:19:46;;;;;;;;;;;12.00;66.70;;;;;;5022696;28;88609;-36
2022/11/08 00:22:13;;;;;;;;;;;12.00;66.50;;;;;;5021769;28;89645;-36
2022/11/08 00:24:38;;;;;;;;;;;12.00;66.60;;;;;;5022905;28;87096;-36
2022/11/08 00:27:06;;;;;;;;;;;12.00;66.60;;;;;;5023107;28;87148;-36
2022/11/08 00:29:35;;;;;;;;;;;12.00;66.60;;;;;;5025229;28;87601;-36
2022/11/08 00:32:01;;;;;;;;;;;12.00;66.60;;;;;;5022971;28;88950;-36
2022/11/08 00:34:26;;;;;;;;;;;12.00;66.70;;;;;;5021156;28;91919;-36
2022/11/08 00:36:54;;;;;;;;;;;12.00;66.70;;;;;;5022664;28;87172;-36
2022/11/08 00:39:20;;;;;;;;;;;11.90;66.60;;;;;;5023133;28;87728;-36
2022/11/08 00:41:45;;;;;;;;;;;12.00;66.60;;;;;;5022321;28;88151;-36
2022/11/08 00:44:11;;;;;;;;;;;12.00;66.60;;;;;;5022613;28;87141;-36
2022/11/08 00:46:37;;;;;;;;;;;12.00;66.60;;;;;;5022193;28;87937;-36
2022/11/08 00:49:06;;;;;;;;;;;12.00;66.50;;;;;;5022120;28;89421;-36
2022/11/08 00:51:32;;;;;;;;;;;12.00;66.60;;;;;;5025521;28;87042;-36
2022/11/08 00:53:58;;;;;;;;;;;12.00;66.50;;;;;;5022300;28;88269;-36
2022/11/08 00:56:24;;;;;;;;;;;12.00;66.50;;;;;;5022608;28;87163;-36
2022/11/08 00:58:49;;;;;;;;;;;11.90;66.50;;;;;;5022212;28;87509;-36
2022/11/08 01:01:17;;;;;;;;;;;11.90;66.60;;;;;;5022434;28;88061;-36
2022/11/08 01:03:43;;;;;;;;;;;11.90;66.60;;;;;;5022829;28;86449;-36
2022/11/08 01:06:09;;;;;;;;;;;11.90;66.60;;;;;;5022601;28;86993;-36
2022/11/08 01:08:35;;;;;;;;;;;11.90;66.60;;;;;;5022237;28;88028;-36
2022/11/08 01:11:02;;;;;;;;;;;11.90;66.60;;;;;;5021952;28;88126;-36
2022/11/08 01:13:27;;;;;;;;;;;11.90;66.60;;;;;;5024785;28;89469;-36
2022/11/08 01:15:53;;;;;;;;;;;11.90;66.60;;;;;;5024766;28;87125;-36
2022/11/08 01:18:18;;;;;;;;;;;11.90;66.60;;;;;;5025828;28;87800;-36
2022/11/08 01:20:45;;;;;;;;;;;11.90;66.60;;;;;;5025451;28;88104;-36
2022/11/08 01:23:11;;;;;;;;;;;11.90;66.60;;;;;;5025743;28;86967;-36
2022/11/08 01:25:38;;;;;;;;;;;11.90;67.20;;;;;;5025467;28;89174;-36
2022/11/08 01:28:04;;;;;;;;;;;11.90;66.60;;;;;;5025736;28;88037;-36
2022/11/08 01:30:29;;;;;;;;;;;11.90;66.60;;;;;;5025829;28;87184;-36
2022/11/08 01:32:55;;;;;;;;;;;11.90;66.60;;;;;;5025725;28;87008;-36
2022/11/08 01:35:20;;;;;;;;;;;11.90;66.50;;;;;;5027369;28;88997;-36
2022/11/08 01:37:46;;;;;;;;;;;11.90;66.60;;;;;;5025566;28;88389;-36
2022/11/08 01:40:12;;;;;;;;;;;11.80;66.60;;;;;;5025091;28;88279;-36
2022/11/08 01:42:37;;;;;;;;;;;11.90;66.60;;;;;;5025536;28;87482;-36
2022/11/08 01:45:05;;;;;;;;;;;11.80;66.60;;;;;;5025534;28;87090;-36
2022/11/08 01:47:30;;;;;;;;;;;11.80;66.60;;;;;;5024902;28;88678;-36
2022/11/08 01:49:58;;;;;;;;;;;11.90;66.50;;;;;;5025398;28;87110;-36
2022/11/08 01:52:26;;;;;;;;;;;11.90;66.50;;;;;;5025455;28;87447;-36
2022/11/08 01:55:01;;;;;;;;;;;11.80;66.50;;;;;;5024627;28;89330;-36
2022/11/08 01:57:30;;;;;;;;;;;11.80;66.50;;;;;;5028095;28;86997;-36
2022/11/08 01:59:57;;;;;;;;;;;11.90;66.60;;;;;;5024071;28;88892;-36
2022/11/08 02:02:23;;;;;;;;;;;11.80;66.50;;;;;;5025189;28;87009;-36
2022/11/08 02:04:48;;;;;;;;;;;11.80;66.50;;;;;;5025311;28;87504;-36
2022/11/08 02:07:14;;;;;;;;;;;11.80;66.50;;;;;;5024723;28;88345;-36
2022/11/08 02:09:42;;;;;;;;;;;11.80;66.60;;;;;;5024847;28;87071;-36
2022/11/08 02:12:08;;;;;;;;;;;11.80;66.60;;;;;;5025155;28;87342;-36
2022/11/08 02:14:34;;;;;;;;;;;11.90;66.60;;;;;;5024708;28;87832;-36
2022/11/08 02:17:00;;;;;;;;;;;11.80;66.50;;;;;;5028389;28;86311;-36
2022/11/08 02:19:31;;;;;;;;;;;11.90;66.50;;;;;;5024398;28;89461;-36
2022/11/08 02:22:00;;;;;;;;;;;11.80;66.60;;;;;;5024833;28;86988;-36
2022/11/08 02:24:25;;;;;;;;;;;11.80;66.60;;;;;;5023791;28;88888;-36
2022/11/08 02:26:51;;;;;;;;;;;11.80;66.60;;;;;;5023974;28;89332;-36
2022/11/08 02:29:43;;;;;;;;;;;11.80;66.60;;;;;;5024574;28;87111;-36
2022/11/08 02:32:10;;;;;;;;;;;11.80;66.60;;;;;;5022267;28;87541;-36
2022/11/08 02:34:39;;;;;;;;;;;11.80;66.50;;;;;;5024395;28;87733;-36
2022/11/08 02:37:05;;;;;;;;;;;11.80;66.60;;;;;;5024400;28;86894;-36
2022/11/08 02:39:31;;;;;;;;;;;11.80;66.60;;;;;;5027127;28;87216;-36
2022/11/08 02:41:57;;;;;;;;;;;11.80;66.60;;;;;;5025094;28;86201;-36
2022/11/08 02:44:23;;;;;;;;;;;11.80;66.60;;;;;;5024679;28;87007;-36
2022/11/08 02:46:48;;;;;;;;;;;11.80;66.60;;;;;;5024262;28;88060;-36
2022/11/08 02:49:14;;;;;;;;;;;11.70;66.60;;;;;;5023867;28;87881;-36
2022/11/08 02:51:39;;;;;;;;;;;11.80;66.60;;;;;;5024157;28;87957;-36
2022/11/08 02:54:05;;;;;;;;;;;11.80;66.60;;;;;;5024063;28;87894;-36
2022/11/08 02:56:30;;;;;;;;;;;11.70;66.60;;;;;;5024466;28;87146;-36
2022/11/08 02:58:56;;;;;;;;;;;11.70;66.60;;;;;;5024569;28;87444;-36
2022/11/08 03:01:21;;;;;;;;;;;11.70;66.50;;;;;;5026897;28;88181;-36
2022/11/08 03:03:47;;;;;;;;;;;11.80;66.60;;;;;;5024202;28;86989;-36
2022/11/08 03:06:12;;;;;;;;;;;11.70;66.60;;;;;;5024165;28;87277;-36
2022/11/08 03:08:38;;;;;;;;;;;11.70;66.60;;;;;;5024508;28;87545;-36
2022/11/08 03:11:03;;;;;;;;;;;11.70;66.60;;;;;;5024238;28;87445;-36
2022/11/08 03:13:29;;;;;;;;;;;11.70;66.50;;;;;;5023109;28;89146;-36
2022/11/08 03:15:54;;;;;;;;;;;11.70;66.60;;;;;;5024117;28;87123;-38
2022/11/08 03:18:20;;;;;;;;;;;11.70;66.60;;;;;;5024169;28;87474;-36
2022/11/08 03:20:45;;;;;;;;;;;11.70;66.60;;;;;;5023314;28;88277;-38
2022/11/08 03:23:11;;;;;;;;;;;11.70;66.60;;;;;;5026610;28;87137;-36
2022/11/08 03:25:36;;;;;;;;;;;11.70;66.60;;;;;;5023824;28;87970;-37
2022/11/08 03:28:03;;;;;;;;;;;11.70;66.70;;;;;;5023959;28;87160;-38
2022/11/08 03:30:28;;;;;;;;;;;11.70;66.70;;;;;;5024274;28;87202;-38
2022/11/08 03:32:54;;;;;;;;;;;11.70;66.60;;;;;;5023273;28;89533;-36
2022/11/08 03:35:19;;;;;;;;;;;11.70;66.50;;;;;;5023097;28;87073;-36
2022/11/08 03:37:48;;;;;;;;;;;11.70;66.60;;;;;;5022267;28;87969;-36
2022/11/08 03:40:14;;;;;;;;;;;11.70;66.60;;;;;;5023265;28;87575;-38
2022/11/08 03:42:39;;;;;;;;;;;11.70;66.60;;;;;;5023765;28;87239;-36
2022/11/08 03:45:05;;;;;;;;;;;11.70;66.80;;;;;;5026295;28;88450;-37
2022/11/08 03:47:35;;;;;;;;;;;11.70;66.70;;;;;;5023209;28;87409;-37
2022/11/08 03:50:01;;;;;;;;;;;11.70;66.80;;;;;;5023313;28;87468;-36
2022/11/08 03:52:26;;;;;;;;;;;11.70;66.60;;;;;;5022634;28;88088;-38
2022/11/08 03:54:52;;;;;;;;;;;11.70;66.70;;;;;;5024027;28;86413;-37
2022/11/08 03:57:17;;;;;;;;;;;11.70;66.60;;;;;;5023462;28;87009;-36
2022/11/08 03:59:43;;;;;;;;;;;11.70;66.60;;;;;;5022906;28;88568;-38
2022/11/08 04:02:08;;;;;;;;;;;11.60;66.50;;;;;;5022852;28;88604;-37
2022/11/08 04:04:33;;;;;;;;;;;11.60;66.70;;;;;;5025741;28;88134;-38
2022/11/08 04:06:59;;;;;;;;;;;11.60;66.80;;;;;;5023151;28;87070;-36
2022/11/08 04:09:24;;;;;;;;;;;11.60;66.60;;;;;;5023268;28;87096;-38
2022/11/08 04:21:17;;;;;;;;;;;11.60;66.80;;;;;;5023042;28;87032;-38
2022/11/08 04:22:48;;;;;;;;;;;11.60;66.80;;;;;;5023240;28;87013;-38
2022/11/08 04:25:13;;;;;;;;;;;11.60;66.90;;;;;;5023178;28;87512;-38
2022/11/08 04:27:39;;;;;;;;;;;11.60;66.80;;;;;;5024998;28;89192;-38
2022/11/08 04:30:04;;;;;;;;;;;11.60;66.80;;;;;;5023141;28;88198;-38
2022/11/08 04:32:30;;;;;;;;;;;11.60;66.80;;;;;;5022563;28;88152;-38
2022/11/08 04:34:55;;;;;;;;;;;11.60;67.60;;;;;;5022695;28;87329;-37
2022/11/08 04:37:21;;;;;;;;;;;11.60;66.80;;;;;;5023084;28;87486;-38
2022/11/08 04:39:46;;;;;;;;;;;11.60;66.70;;;;;;5022477;28;87891;-38
2022/11/08 04:42:12;;;;;;;;;;;11.60;66.80;;;;;;5022921;28;86965;-38
2022/11/08 04:44:37;;;;;;;;;;;11.60;66.80;;;;;;5023126;28;87552;-38
2022/11/08 04:47:03;;;;;;;;;;;11.60;66.90;;;;;;5022385;28;88191;-38
2022/11/08 04:49:28;;;;;;;;;;;11.60;66.80;;;;;;5025496;28;87243;-38
2022/11/08 04:51:54;;;;;;;;;;;11.60;66.70;;;;;;5021355;28;88983;-38
2022/11/08 04:54:19;;;;;;;;;;;11.60;66.80;;;;;;5022812;28;88403;-38
2022/11/08 04:56:45;;;;;;;;;;;11.60;66.80;;;;;;5022574;28;87519;-38
2022/11/08 04:59:10;;;;;;;;;;;11.60;66.90;;;;;;5022314;28;88149;-38
2022/11/08 05:01:36;;;;;;;;;;;11.50;66.80;;;;;;5022581;28;87101;-38
2022/11/08 05:04:01;;;;;;;;;;;11.50;66.80;;;;;;5022611;28;87181;-38
2022/11/08 05:06:28;;;;;;;;;;;11.50;66.80;;;;;;5021794;28;89716;-38
2022/11/08 05:08:55;;;;;;;;;;;11.60;66.80;;;;;;5023022;28;86354;-38
2022/11/08 05:11:21;;;;;;;;;;;11.50;66.90;;;;;;5025072;28;86894;-37
2022/11/08 05:13:47;;;;;;;;;;;11.50;66.80;;;;;;5022126;28;87068;-38
2022/11/08 05:16:13;;;;;;;;;;;11.50;66.90;;;;;;5021762;28;88002;-38
2022/11/08 05:18:38;;;;;;;;;;;11.50;67.60;;;;;;5021662;28;89229;-37
2022/11/08 05:23:49;;;;;;;;;;;11.50;66.90;;;;;;5022319;28;87078;-38
2022/11/08 05:26:15;;;;;;;;;;;11.50;66.90;;;;;;5021583;28;88006;-38
2022/11/08 05:28:40;;;;;;;;;;;11.50;66.90;;;;;;5022280;28;86987;-38
2022/11/08 05:31:06;;;;;;;;;;;11.50;67.00;;;;;;5022313;28;86977;-38
2022/11/08 05:33:32;;;;;;;;;;;11.50;67.00;;;;;;5025138;28;87245;-38
2022/11/08 05:36:01;;;;;;;;;;;11.50;67.00;;;;;;5021630;28;87040;-38
2022/11/08 05:38:28;;;;;;;;;;;11.50;67.00;;;;;;5021612;28;87979;-37
2022/11/08 05:40:55;;;;;;;;;;;11.50;66.90;;;;;;5020946;28;88614;-38
2022/11/08 05:43:20;;;;;;;;;;;11.50;67.00;;;;;;5022102;28;87566;-38
2022/11/08 05:45:46;;;;;;;;;;;11.50;67.00;;;;;;5021802;28;88046;-38
2022/11/08 05:48:11;;;;;;;;;;;11.50;67.00;;;;;;5021835;28;87097;-37
2022/11/08 05:50:37;;;;;;;;;;;11.50;67.00;;;;;;5021965;28;87502;-38
2022/11/08 05:53:02;;;;;;;;;;;11.50;66.90;;;;;;5021281;28;88030;-38
2022/11/08 05:55:28;;;;;;;;;;;11.50;66.90;;;;;;5024764;28;87049;-38
2022/11/08 05:57:53;;;;;;;;;;;11.50;66.90;;;;;;5021668;28;88675;-38
2022/11/08 06:00:19;;;;;;;;;;;11.40;67.00;;;;;;5021934;28;87219;-38
2022/11/08 06:02:44;;;;;;;;;;;11.50;66.80;;;;;;5025412;28;87328;-38
2022/11/08 06:05:10;;;;;;;;;;;11.40;66.90;;;;;;5024118;28;88899;-38
2022/11/08 06:07:36;;;;;;;;;;;11.40;66.80;;;;;;5025156;28;87085;-38
2022/11/08 06:10:02;;;;;;;;;;;11.40;66.90;;;;;;5025143;28;87437;-38
2022/11/08 06:12:27;;;;;;;;;;;11.40;67.00;;;;;;5024528;28;89333;-38
2022/11/08 06:14:53;;;;;;;;;;;11.40;67.00;;;;;;5028101;28;87032;-38
2022/11/08 06:17:18;;;;;;;;;;;11.40;67.00;;;;;;5024750;28;88237;-38
2022/11/08 06:19:44;;;;;;;;;;;11.40;66.90;;;;;;5024626;28;87033;-38
2022/11/08 06:22:10;;;;;;;;;;;11.40;67.00;;;;;;5025308;28;88812;-38
2022/11/08 06:24:35;;;;;;;;;;;11.40;66.90;;;;;;5024631;28;87955;-38
2022/11/08 06:27:01;;;;;;;;;;;11.40;66.90;;;;;;5024700;28;87523;-37
2022/11/08 06:29:27;;;;;;;;;;;11.40;67.00;;;;;;5024397;28;88025;-38
2022/11/08 06:31:52;;;;;;;;;;;11.40;67.10;;;;;;5024489;28;87704;-38
2022/11/08 06:34:18;;;;;;;;;;;11.40;67.00;;;;;;5024862;28;86833;-38
2022/11/08 06:36:43;;;;;;;;;;;11.40;67.10;;;;;;5027020;28;87340;-38
2022/11/08 06:39:09;;;;;;;;;;;11.40;67.00;;;;;;5024654;28;87019;-38
2022/11/08 06:41:34;;;;;;;;;;;11.40;66.90;;;;;;5024383;28;86992;-38
2022/11/08 06:44:00;;;;;;;;;;;11.40;67.00;;;;;;5024269;28;87610;-38
2022/11/08 06:46:25;;;;;;;;;;;11.40;67.20;;;;;;5024937;28;86351;-38
2022/11/08 06:48:51;;;;;;;;;;;11.40;67.10;;;;;;5024842;28;87386;-38
2022/11/08 06:51:16;;;;;;;;;;;11.40;67.10;;;;;;5023900;28;87683;-38
2022/11/08 06:53:42;;;;;;;;;;;11.40;67.20;;;;;;5023844;28;88102;-38
2022/11/08 06:56:08;;;;;;;;;;;11.40;67.00;;;;;;5024139;28;88267;-38
2022/11/08 06:58:33;;;;;;;;;;;11.50;67.00;;;;;;5026954;28;88071;-38
2022/11/08 07:01:02;;;;;;;;;;;11.50;67.00;;;;;;5024384;28;87423;-38
2022/11/08 07:03:27;;;;;;;;;;;11.40;67.00;;;;;;5023748;28;89468;-38
2022/11/08 07:05:53;;;;;;;;;;;11.40;67.10;;;;;;5024357;28;87178;-38
2022/11/08 07:08:18;;;;;;;;;;;11.40;67.00;;;;;;5024226;28;87473;-38
2022/11/08 07:10:44;;;;;;;;;;;11.40;66.90;;;;;;5024359;28;86897;-38
2022/11/08 07:13:10;;;;;;;;;;;11.40;66.90;;;;;;5023275;28;87034;-38
2022/11/08 07:15:36;;;;;;;;;;;11.40;67.10;;;;;;5024153;28;87041;-38
2022/11/08 07:18:02;;;;;;;;;;;11.40;67.70;;;;;;5023030;28;89002;-38
2022/11/08 07:20:28;;;;;;;;;;;11.40;67.20;;;;;;5026967;28;86993;-38
2022/11/08 07:22:54;;;;;;;;;;;11.40;67.10;;;;;;5023728;28;88335;-38
2022/11/08 07:25:20;;;;;;;;;;;11.40;67.20;;;;;;5023751;28;87117;-38
2022/11/08 07:27:45;;;;;;;;;;;11.40;67.00;;;;;;5023989;28;87081;-38
2022/11/08 07:30:11;;;;;;;;;;;11.30;67.20;;;;;;5023671;28;88064;-38
2022/11/08 07:32:36;;;;;;;;;;;11.30;67.10;;;;;;5024145;28;87158;-38
2022/11/08 07:35:02;;;;;;;;;;;11.30;67.10;;;;;;5023934;28;86865;-38
2022/11/08 07:37:27;;;;;;;;;;;11.30;67.40;;;;;;5023637;28;87453;-38
2022/11/08 07:39:53;;;;;;;;;;;11.30;67.30;;;;;;5023867;28;87135;-38
2022/11/08 07:42:18;;;;;;;;;;;11.30;67.20;;;;;;5025625;28;88480;-38
2022/11/08 07:44:44;;;;;;;;;;;11.30;67.30;;;;;;5023550;28;87153;-38
2022/11/08 07:47:09;;;;;;;;;;;11.30;67.20;;;;;;5023738;28;87357;-38
2022/11/08 07:49:35;;;;;;;;;;;11.30;67.30;;;;;;5023291;28;87271;-38
2022/11/08 07:52:00;;;;;;;;;;;11.30;67.50;;;;;;5023181;28;87174;-38
2022/11/08 07:54:26;;;;;;;;;;;11.40;67.40;;;;;;5023629;28;87095;-38
2022/11/08 07:56:51;;;;;;;;;;;11.30;67.40;;;;;;5023068;28;88281;-38
2022/11/08 07:59:17;;;;;;;;;;;11.30;67.40;;;;;;5024041;28;86688;-38
2022/11/08 08:01:42;;;;;;;;;;;11.30;67.40;;;;;;5023305;28;87487;-38
2022/11/08 08:04:10;;;;;;;;;;;11.30;67.40;;;;;;5025825;28;88216;-38
2022/11/08 08:06:36;;;;;;;;;;;11.20;67.50;;;;;;5022635;28;88001;-38
2022/11/08 08:09:01;;;;;;;;;;;11.30;67.40;;;;;;5023231;28;88181;-38
2022/11/08 08:11:27;;;;;;;;;;;11.30;67.40;;;;;;5023143;28;87068;-38
2022/11/08 08:13:54;;;;;;;;;;;11.30;67.50;;;;;;5023320;28;87053;-38
2022/11/08 08:16:20;;;;;;;;;;;11.30;67.50;;;;;;5022653;28;89730;-38
2022/11/08 08:18:47;;;;;;;;;;;11.30;67.60;;;;;;5022957;28;87253;-38
2022/11/08 08:21:12;;;;;;;;;;;11.30;67.40;;;;;;5022988;28;87017;-38
2022/11/08 08:23:38;;;;;;;;;;;11.30;67.40;;;;;;5025897;28;87070;-38
2022/11/08 08:26:03;;;;;;;;;;;11.30;67.50;;;;;;5022907;28;87056;-38
2022/11/08 08:28:29;;;;;;;;;;;11.20;67.50;;;;;;5022675;28;88370;-38
2022/11/08 08:30:54;;;;;;;;;;;11.20;67.50;;;;;;5022498;28;88143;-38
2022/11/08 08:33:20;;;;;;;;;;;11.30;67.60;;;;;;5022904;28;88439;-38
2022/11/08 08:35:45;;;;;;;;;;;11.20;68.10;;;;;;5022393;28;87981;-38
2022/11/08 08:38:11;;;;;;;;;;;11.20;67.60;;;;;;5022856;28;87100;-38
2022/11/08 08:40:37;;;;;;;;;;;11.30;67.50;;;;;;5022655;28;87309;-38
2022/11/08 08:43:04;;;;;;;;;;;11.30;67.50;;;;;;5022495;28;87151;-38
2022/11/08 08:45:33;;;;;;;;;;;11.30;67.40;;;;;;5024249;28;87088;-38
2022/11/08 08:47:58;;;;;;;;;;;11.30;67.50;;;;;;5022739;28;87270;-38
2022/11/08 08:50:25;;;;;;;;;;;11.30;67.60;;;;;;5022815;28;86944;-38
2022/11/08 08:52:50;;;;;;;;;;;11.20;67.50;;;;;;5022497;28;87477;-38
2022/11/08 08:55:16;;;;;;;;;;;11.30;67.70;;;;;;5021386;28;89150;-38
2022/11/08 08:57:45;;;;;;;;;;;11.30;67.40;;;;;;5022660;28;87021;-37
2022/11/08 09:00:11;;;;;;;;;;;11.30;67.50;;;;;;5022391;28;86960;-38
2022/11/08 09:02:37;;;;;;;;;;;11.40;67.40;;;;;;5022089;28;89546;-38
2022/11/08 09:05:03;;;;;;;;;;;11.40;67.20;;;;;;5022602;28;86901;-38
2022/11/08 09:07:28;;;;;;;;;;;11.40;67.00;;;;;;5025045;28;89022;-37
2022/11/08 09:09:54;;;;;;;;;;;11.50;67.00;;;;;;5022355;28;87026;-38
2022/11/08 09:12:19;;;;;;;;;;;11.50;67.10;;;;;;5022535;28;87378;-38
2022/11/08 09:14:45;;;;;;;;;;;11.50;67.20;;;;;;5022093;28;87289;-38
2022/11/08 09:17:10;;;;;;;;;;;11.50;67.20;;;;;;5022577;28;87170;-38
2022/11/08 09:19:36;;;;;;;;;;;11.50;67.10;;;;;;5021844;28;88017;-38
2022/11/08 09:22:01;;;;;;;;;;;11.50;67.20;;;;;;5021945;28;87239;-38
2022/11/08 09:24:27;;;;;;;;;;;11.40;67.80;;;;;;5022171;28;87253;-37
2022/11/08 09:26:52;;;;;;;;;;;11.40;67.30;;;;;;5022175;28;87073;-38
2022/11/08 09:29:18;;;;;;;;;;;11.50;67.40;;;;;;5024871;28;88036;-38
2022/11/08 09:31:43;;;;;;;;;;;11.40;67.40;;;;;;5022128;28;87469;-38
2022/11/08 09:34:09;;;;;;;;;;;11.40;67.30;;;;;;5021949;28;88150;-38
2022/11/08 09:36:34;;;;;;;;;;;11.40;67.40;;;;;;5024358;28;86310;-38
2022/11/08 09:39:00;;;;;;;;;;;11.30;67.60;;;;;;5025542;28;87756;-38
2022/11/08 09:41:25;;;;;;;;;;;11.30;67.70;;;;;;5024733;28;89606;-38
2022/11/08 09:44:00;;;;;;;;;;;11.40;67.70;;;;;;5024849;28;88088;-38
2022/11/08 09:46:32;;;;;;;;;;;11.30;67.70;;;;;;5025558;28;87541;-38
2022/11/08 09:49:00;;;;;;;;;;;11.40;67.80;;;;;;5025071;28;88315;-38
2022/11/08 09:51:27;;;;;;;;;;;11.40;67.80;;;;;;5028209;28;87123;-38
2022/11/08 09:53:54;;;;;;;;;;;11.50;67.50;;;;;;5024470;28;87323;-38
2022/11/08 09:56:20;;;;;;;;;;;11.40;67.80;;;;;;5025146;28;87143;-38
2022/11/08 09:59:04;;;;;;;;;;;11.40;67.90;;;;;;5025247;28;87357;-38
2022/11/08 10:01:31;;;;;;;;;;;11.40;67.50;;;;;;5025481;28;87032;-37
2022/11/08 10:03:58;;;;;;;;;;;11.40;67.70;;;;;;5025250;28;87077;-38
2022/11/08 10:06:43;;;;;;;;;;;11.40;68.00;;;;;;5025347;28;87023;-38
2022/11/08 10:09:44;;;;;;;;;;;11.40;67.80;;;;;;5024240;28;88863;-38
2022/11/08 10:12:16;;;;;;;;;;;11.40;67.90;;;;;;4982473;28;87154;-38
2022/11/08 10:15:00;;;;;;;;;;;11.40;68.00;;;;;;5015867;28;90692;-38
2022/11/08 10:17:44;;;;;;;;;;;11.40;68.00;;;;;;5025142;28;87224;-38
2022/11/08 10:20:10;;;;;;;;;;;11.50;68.20;;;;;;5025019;28;87083;-38
2022/11/08 10:22:45;;;;;;;;;;;11.50;67.70;;;;;;5024509;28;89443;-37
2022/11/08 10:25:30;;;;;;;;;;;11.50;68.00;;;;;;5025003;28;88258;-38
2022/11/08 10:27:58;;;;;;;;;;;11.50;67.90;;;;;;5025316;28;87478;-38
2022/11/08 10:30:26;;;;;;;;;;;11.60;67.70;;;;;;5024520;28;88054;-38
2022/11/08 10:32:54;;;;;;;;;;;11.60;67.90;;;;;;5024777;28;87103;-38
2022/11/08 10:35:20;;;;;;;;;;;11.60;67.60;;;;;;5025964;28;87807;-38
2022/11/08 10:37:48;;;;;;;;;;;11.50;68.00;;;;;;5024732;28;87326;-38
2022/11/08 10:40:19;;;;;;;;;;;11.50;68.10;;;;;;5024472;28;87076;-38
2022/11/08 10:42:46;;;;;;;;;;;11.50;68.00;;;;;;5024273;28;87948;-38
2022/11/08 10:45:12;;;;;;;;;;;11.60;68.00;;;;;;5024456;28;87178;-38
2022/11/08 10:47:38;;;;;;;;;;;11.50;68.30;;;;;;5024316;28;88599;-38
2022/11/08 10:50:14;;;;;;;;;;;11.50;68.00;;;;;;5023986;28;89721;-38
2022/11/08 10:52:53;;;;;;;;;;;11.60;68.00;;;;;;5024555;28;86243;-38
2022/11/08 10:55:26;;;;;;;;;;;11.60;68.00;;;;;;5024479;28;86877;-38
2022/11/08 10:57:52;;;;;;;;;;;11.60;68.20;;;;;;5026770;28;89437;-38
2022/11/08 11:00:20;;;;;;;;;;;11.60;68.20;;;;;;5023795;28;87936;-38
2022/11/08 11:02:49;;;;;;;;;;;11.50;68.20;;;;;;5023962;28;88084;-38
2022/11/08 11:05:14;;;;;;;;;;;11.50;68.20;;;;;;5023892;28;87042;-38
2022/11/08 11:07:40;;;;;;;;;;;11.60;68.30;;;;;;5024239;28;87198;-38
2022/11/08 11:10:16;;;;;;;;;;;11.60;68.30;;;;;;5023961;28;88347;-38
2022/11/08 11:12:47;;;;;;;;;;;11.60;68.10;;;;;;5023946;28;87141;-38
2022/11/08 11:15:14;;;;;;;;;;;11.60;68.50;;;;;;5024249;28;87296;-38
2022/11/08 11:17:43;;;;;;;;;;;11.60;68.30;;;;;;5024014;28;87704;-38
2022/11/08 11:20:18;;;;;;;;;;;11.60;68.40;;;;;;5027026;28;87016;-38
2022/11/08 11:22:44;;;;;;;;;;;11.60;68.10;;;;;;5023349;28;88497;-38
2022/11/08 11:25:15;;;;;;;;;;;11.70;68.60;;;;;;5023382;28;87965;-38
2022/11/08 11:27:41;;;;;;;;;;;11.70;68.20;;;;;;5023796;28;88586;-38
2022/11/08 11:30:29;;;;;;;;;;;11.60;68.70;;;;;;5023762;28;88591;-38
2022/11/08 11:33:00;;;;;;;;;;;11.60;68.90;;;;;;5023534;28;87145;-38
2022/11/08 11:35:29;;;;;;;;;;;11.50;68.90;;;;;;5022894;28;88830;-38
2022/11/08 11:37:57;;;;;;;;;;;11.50;69.10;;;;;;5023329;28;88084;-37
2022/11/08 11:40:25;;;;;;;;;;;11.50;69.60;;;;;;5023415;28;87096;-38
2022/11/08 11:42:55;;;;;;;;;;;11.50;69.40;;;;;;5026695;28;87577;-38
2022/11/08 11:45:44;;;;;;;;;;;11.60;69.60;;;;;;5023533;28;87258;-38
2022/11/08 11:48:17;;;;;;;;;;;11.60;69.60;;;;;;5023876;28;87467;-38
2022/11/08 11:50:47;;;;;;;;;;;11.60;69.40;;;;;;5022380;28;90414;-38
2022/11/08 11:53:17;;;;;;;;;;;11.60;69.40;;;;;;5023343;28;86962;-38
2022/11/08 11:55:48;;;;;;;;;;;11.60;69.60;;;;;;5023417;28;88655;-38
2022/11/08 11:58:19;;;;;;;;;;;11.60;69.80;;;;;;5022621;28;87140;-38
2022/11/08 12:00:50;;;;;;;;;;;11.60;69.70;;;;;;5023339;28;87255;-38
2022/11/08 12:03:21;;;;;;;;;;;11.60;69.90;;;;;;5023575;28;87340;-38
2022/11/08 12:05:59;;;;;;;;;;;11.60;69.90;;;;;;5025882;28;88069;-38
2022/11/08 12:08:31;;;;;;;;;;;11.60;70.10;;;;;;5023829;28;87479;-38
2022/11/08 12:10:59;;;;;;;;;;;11.60;70.10;;;;;;5022781;28;88283;-38
2022/11/08 12:13:43;;;;;;;;;;;11.60;70.30;;;;;;5023214;28;87187;-38
2022/11/08 12:16:09;;;;;;;;;;;11.60;70.50;;;;;;5022605;28;88088;-38
2022/11/08 12:18:37;;;;;;;;;;;11.60;70.60;;;;;;5022800;28;88180;-38
2022/11/08 12:21:09;;;;;;;;;;;11.60;70.60;;;;;;5023009;28;87164;-38
2022/11/08 12:23:57;;;;;;;;;;;11.60;70.70;;;;;;5023421;28;87155;-38
2022/11/08 12:26:22;;;;;;;;;;;11.60;70.90;;;;;;5022543;28;88437;-38
2022/11/08 12:28:50;;;;;;;;;;;11.60;70.40;;;;;;5025936;28;87069;-38
2022/11/08 12:31:24;;;;;;;;;;;11.60;70.40;;;;;;5022624;28;88510;-37
2022/11/08 12:34:02;;;;;;;;;;;11.60;70.50;;;;;;5023593;28;86236;-38
2022/11/08 12:36:46;;;;;;;;;;;11.60;70.50;;;;;;5022782;28;87569;-38
2022/11/08 12:39:15;;;;;;;;;;;11.60;70.60;;;;;;5022353;28;87620;-38
2022/11/08 12:41:55;;;;;;;;;;;11.60;70.80;;;;;;5022108;28;88019;-38
2022/11/08 12:44:34;;;;;;;;;;;11.60;70.60;;;;;;5022894;28;88477;-38
2022/11/08 12:47:22;;;;;;;;;;;11.60;70.60;;;;;;5022362;28;88465;-38
2022/11/08 12:49:53;;;;;;;;;;;11.60;70.60;;;;;;5025681;28;87003;-38
2022/11/08 12:52:26;;;;;;;;;;;11.60;70.80;;;;;;5021911;28;87206;-38
2022/11/08 12:54:59;;;;;;;;;;;11.70;70.80;;;;;;5022893;28;87004;-38
2022/11/08 12:57:27;;;;;;;;;;;11.70;70.90;;;;;;5022543;28;88943;-38
2022/11/08 12:59:58;;;;;;;;;;;11.70;70.60;;;;;;5022437;28;88701;-38
2022/11/08 13:02:26;;;;;;;;;;;11.70;70.90;;;;;;5022404;28;87311;-38
2022/11/08 13:04:58;;;;;;;;;;;11.70;70.70;;;;;;5022491;28;87226;-38
2022/11/08 13:07:26;;;;;;;;;;;11.70;70.30;;;;;;5021215;28;88113;-38
2022/11/08 13:09:52;;;;;;;;;;;11.70;70.40;;;;;;5022419;28;87059;-38
2022/11/08 13:12:27;;;;;;;;;;;11.70;70.60;;;;;;5028229;28;87336;-38
2022/11/08 13:14:52;;;;;;;;;;;11.80;70.50;;;;;;5026142;28;87089;-38
2022/11/08 13:17:24;;;;;;;;;;;11.80;70.70;;;;;;5026290;28;87346;-38
2022/11/08 13:19:49;;;;;;;;;;;11.70;70.40;;;;;;5025451;28;89406;-37
2022/11/08 13:22:27;;;;;;;;;;;11.80;70.40;;;;;;5026070;28;87439;-38
2022/11/08 13:24:53;;;;;;;;;;;11.70;70.50;;;;;;5026388;28;87409;-38
2022/11/08 13:27:23;;;;;;;;;;;11.80;70.30;;;;;;5025434;28;87998;-38
2022/11/08 13:29:49;;;;;;;;;;;11.80;70.90;;;;;;5025411;28;87040;-38
2022/11/08 13:32:25;;;;;;;;;;;11.80;70.60;;;;;;5025355;28;87929;-38
2022/11/08 13:35:13;;;;;;;;;;;11.80;70.50;;;;;;5027920;28;88102;-38
2022/11/08 13:37:59;;;;;;;;;;;11.90;70.60;;;;;;5025660;28;87249;-38
2022/11/08 13:40:28;;;;;;;;;;;11.90;70.30;;;;;;5024731;28;88266;-38
2022/11/08 13:43:11;;;;;;;;;;;12.00;70.00;;;;;;5025665;28;87129;-38
2022/11/08 13:45:37;;;;;;;;;;;12.00;69.70;;;;;;5025726;28;87010;-38
2022/11/08 13:48:22;;;;;;;;;;;12.00;70.00;;;;;;5024825;28;88085;-38
2022/11/08 13:50:55;;;;;;;;;;;12.00;70.00;;;;;;5025969;28;86248;-38
2022/11/08 13:53:21;;;;;;;;;;;12.00;70.00;;;;;;5025040;28;88039;-38
2022/11/08 13:55:47;;;;;;;;;;;12.00;69.70;;;;;;5025199;28;88138;-38
2022/11/08 13:58:28;;;;;;;;;;;12.00;69.90;;;;;;5027437;28;88171;-38
2022/11/08 14:00:54;;;;;;;;;;;12.00;69.80;;;;;;5025132;28;88141;-38
2022/11/08 14:03:32;;;;;;;;;;;12.10;69.50;;;;;;5025004;28;87281;-38
2022/11/08 14:06:03;;;;;;;;;;;12.00;69.80;;;;;;5025068;28;88892;-38
2022/11/08 14:08:36;;;;;;;;;;;11.90;70.20;;;;;;5024976;28;88115;-38
2022/11/08 14:11:20;;;;;;;;;;;11.90;70.30;;;;;;5024942;28;87009;-38
2022/11/08 14:13:54;;;;;;;;;;;11.90;70.60;;;;;;5025216;28;87474;-38
2022/11/08 14:16:22;;;;;;;;;;;11.90;70.60;;;;;;5025191;28;87889;-38
2022/11/08 14:18:47;;;;;;;;;;;11.80;70.70;;;;;;5025145;28;87173;-38
2022/11/08 14:21:17;;;;;;;;;;;11.90;70.70;;;;;;5027230;28;87348;-38
2022/11/08 14:23:43;;;;;;;;;;;11.90;70.90;;;;;;5024067;28;88132;-38
2022/11/08 14:26:09;;;;;;;;;;;11.90;70.90;;;;;;5024951;28;88427;-38
2022/11/08 14:28:37;;;;;;;;;;;11.90;70.80;;;;;;5024540;28;88140;-38
2022/11/08 14:31:20;;;;;;;;;;;11.90;70.80;;;;;;5024739;28;87191;-38
2022/11/08 14:33:46;;;;;;;;;;;11.90;70.70;;;;;;5024606;28;88393;-38
2022/11/08 14:36:15;;;;;;;;;;;11.90;70.80;;;;;;5023921;28;87915;-38
2022/11/08 14:39:04;;;;;;;;;;;11.90;70.80;;;;;;5024459;28;87144;-38
2022/11/08 14:41:31;;;;;;;;;;;12.00;70.50;;;;;;5021638;28;87919;-38